createdAt,value
2017-07-15T00:00:07.841Z,14.69
2017-07-15T00:01:07.899Z,14.77
2017-07-15T00:02:07.810Z,14.67
2017-07-15T00:03:07.805Z,14.7
2017-07-15T00:04:07.971Z,14.71
2017-07-15T00:05:08.012Z,14.66
2017-07-15T00:06:07.929Z,14.67
2017-07-15T00:07:07.930Z,14.63
2017-07-15T00:08:07.967Z,14.74
2017-07-15T00:09:08.011Z,14.74
2017-07-15T00:10:08.074Z,14.67
2017-07-15T00:11:08.177Z,14.79
2017-07-15T00:12:08.108Z,14.79
2017-07-15T00:13:08.139Z,14.67
2017-07-15T00:14:08.151Z,14.67
2017-07-15T00:15:08.210Z,14.83
2017-07-15T00:16:08.530Z,14.85
2017-07-15T00:17:08.274Z,14.8
2017-07-15T00:18:08.295Z,14.8
2017-07-15T00:19:08.338Z,14.8
2017-07-15T00:20:08.501Z,14.86
2017-07-15T00:21:08.592Z,14.94
2017-07-15T00:22:08.438Z,14.85
2017-07-15T00:23:08.459Z,14.95
2017-07-15T00:24:08.507Z,14.95
2017-07-15T00:25:08.552Z,14.93
2017-07-15T00:26:08.582Z,14.95
2017-07-15T00:27:08.805Z,14.89
2017-07-15T00:28:09.011Z,14.97
2017-07-15T00:29:08.688Z,15.01
2017-07-15T00:30:08.721Z,15.02
2017-07-15T00:31:08.900Z,14.98
2017-07-15T00:32:08.764Z,15.04
2017-07-15T00:33:08.957Z,15.04
2017-07-15T00:34:09.173Z,15.04
2017-07-15T00:35:09.097Z,15.07
2017-07-15T00:36:09.400Z,15.07
2017-07-15T00:37:09.028Z,15.04
2017-07-15T00:38:09.028Z,15.05
2017-07-15T00:39:09.008Z,15.04
2017-07-15T00:40:09.062Z,15.12
2017-07-15T00:41:09.079Z,15.16
2017-07-15T00:42:09.181Z,15.08
2017-07-15T00:43:09.259Z,15.13
2017-07-15T00:44:09.491Z,15.15
2017-07-15T00:45:09.391Z,15.08
2017-07-15T00:46:09.247Z,15.05
2017-07-15T00:47:09.263Z,15.05
2017-07-15T00:48:09.632Z,15.08
2017-07-15T00:49:09.334Z,15.13
2017-07-15T00:50:09.541Z,15.13
2017-07-15T00:51:09.564Z,15.02
2017-07-15T00:52:09.618Z,15.05
2017-07-15T00:53:09.436Z,15.07
2017-07-15T00:54:09.472Z,15.02
2017-07-15T00:55:09.519Z,15.12
2017-07-15T00:56:09.547Z,15.15
2017-07-15T00:57:09.604Z,15.08
2017-07-15T00:58:09.625Z,15.04
2017-07-15T00:59:09.648Z,15.01
2017-07-15T01:00:09.736Z,15.05
2017-07-15T01:01:09.700Z,15.07
2017-07-15T01:02:09.756Z,15.05
2017-07-15T01:03:09.791Z,15.04
2017-07-15T01:04:09.855Z,15.02
2017-07-15T01:05:09.834Z,15.16
2017-07-15T01:06:09.863Z,15.15
2017-07-15T01:07:09.917Z,15.15
2017-07-15T01:08:10.035Z,15.08
2017-07-15T01:09:09.966Z,15.16
2017-07-15T01:10:10.199Z,15.08
2017-07-15T01:11:10.052Z,15.08
2017-07-15T01:12:10.071Z,15.12
2017-07-15T01:13:10.123Z,15.1
2017-07-15T01:14:10.145Z,15.13
2017-07-15T01:15:10.181Z,15.02
2017-07-15T01:16:10.228Z,14.98
2017-07-15T01:17:10.251Z,14.94
2017-07-15T01:18:10.299Z,14.97
2017-07-15T01:19:10.323Z,14.94
2017-07-15T01:20:10.421Z,14.95
2017-07-15T01:21:10.358Z,14.93
2017-07-15T01:22:10.405Z,14.89
2017-07-15T01:23:10.433Z,14.95
2017-07-15T01:24:10.456Z,14.82
2017-07-15T01:25:10.545Z,14.86
2017-07-15T01:26:10.534Z,14.86
2017-07-15T01:27:10.565Z,14.83
2017-07-15T01:28:10.591Z,14.83
2017-07-15T01:29:10.625Z,14.77
2017-07-15T01:30:10.646Z,14.85
2017-07-15T01:31:10.817Z,14.87
2017-07-15T01:32:10.732Z,14.83
2017-07-15T01:33:10.752Z,14.94
2017-07-15T01:34:11.009Z,14.97
2017-07-15T01:35:10.836Z,14.97
2017-07-15T01:36:10.845Z,14.95
2017-07-15T01:37:10.933Z,14.95
2017-07-15T01:38:10.916Z,14.83
2017-07-15T01:39:10.949Z,14.85
2017-07-15T01:40:11.004Z,14.93
2017-07-15T01:41:11.035Z,14.9
2017-07-15T01:42:11.062Z,14.93
2017-07-15T01:43:11.078Z,14.98
2017-07-15T01:44:11.131Z,14.9
2017-07-15T01:45:11.170Z,14.95
2017-07-15T01:46:11.176Z,14.94
2017-07-15T01:47:11.224Z,14.93
2017-07-15T01:48:11.262Z,14.85
2017-07-15T01:49:11.296Z,14.8
2017-07-15T01:50:11.326Z,14.86
2017-07-15T01:51:11.366Z,14.79
2017-07-15T01:52:11.424Z,14.82
2017-07-15T01:53:11.448Z,14.86
2017-07-15T01:54:11.525Z,14.8
2017-07-15T01:55:11.488Z,14.75
2017-07-15T01:56:11.513Z,14.67
2017-07-15T01:57:11.551Z,14.7
2017-07-15T01:58:11.582Z,14.74
2017-07-15T01:59:11.628Z,14.74
2017-07-15T02:00:11.878Z,14.71
2017-07-15T02:01:11.698Z,14.7
2017-07-15T02:02:11.732Z,14.63
2017-07-15T02:03:11.744Z,14.64
2017-07-15T02:04:11.794Z,14.71
2017-07-15T02:05:11.822Z,14.66
2017-07-15T02:06:11.865Z,14.63
2017-07-15T02:07:11.887Z,14.61
2017-07-15T02:08:12.002Z,14.63
2017-07-15T02:09:11.965Z,14.63
2017-07-15T02:10:12.072Z,14.56
2017-07-15T02:11:11.984Z,14.64
2017-07-15T02:12:12.053Z,14.48
2017-07-15T02:13:12.070Z,14.49
2017-07-15T02:14:12.118Z,14.45
2017-07-15T02:15:12.264Z,14.49
2017-07-15T02:16:12.175Z,14.46
2017-07-15T02:17:12.224Z,14.45
2017-07-15T02:18:12.234Z,14.51
2017-07-15T02:19:12.272Z,14.48
2017-07-15T02:20:12.297Z,14.49
2017-07-15T02:21:12.348Z,14.46
2017-07-15T02:22:12.369Z,14.49
2017-07-15T02:23:12.407Z,14.42
2017-07-15T02:24:12.482Z,14.42
2017-07-15T02:25:12.470Z,14.42
2017-07-15T02:26:12.512Z,14.44
2017-07-15T02:27:12.544Z,14.44
2017-07-15T02:28:12.583Z,14.48
2017-07-15T02:29:12.861Z,14.46
2017-07-15T02:30:12.636Z,14.48
2017-07-15T02:31:12.678Z,14.44
2017-07-15T02:32:12.704Z,14.44
2017-07-15T02:33:12.720Z,14.44
2017-07-15T02:34:12.776Z,14.36
2017-07-15T02:35:12.791Z,14.31
2017-07-15T02:36:12.818Z,14.34
2017-07-15T02:37:12.863Z,14.41
2017-07-15T02:38:12.950Z,14.38
2017-07-15T02:39:12.942Z,14.36
2017-07-15T02:40:12.959Z,14.36
2017-07-15T02:41:13.002Z,14.36
2017-07-15T02:42:13.034Z,14.26
2017-07-15T02:43:13.063Z,14.3
2017-07-15T02:44:13.093Z,14.36
2017-07-15T02:45:13.122Z,14.38
2017-07-15T02:46:13.139Z,14.36
2017-07-15T02:47:13.183Z,14.26
2017-07-15T02:48:13.202Z,14.28
2017-07-15T02:49:13.252Z,14.26
2017-07-15T02:50:13.292Z,14.31
2017-07-15T02:51:13.318Z,14.21
2017-07-15T02:52:13.362Z,14.16
2017-07-15T02:53:13.389Z,14.19
2017-07-15T02:54:13.429Z,14.08
2017-07-15T02:55:13.455Z,14.03
2017-07-15T02:56:13.577Z,14.13
2017-07-15T02:57:13.504Z,14.13
2017-07-15T02:58:13.547Z,14.01
2017-07-15T02:59:13.584Z,14.16
2017-07-15T03:00:13.586Z,14.19
2017-07-15T03:01:14.007Z,14.15
2017-07-15T03:02:13.726Z,14.09
2017-07-15T03:03:13.711Z,14.12
2017-07-15T03:04:13.750Z,14.15
2017-07-15T03:05:13.795Z,14.15
2017-07-15T03:06:13.945Z,14.03
2017-07-15T03:07:13.850Z,14.11
2017-07-15T03:08:13.871Z,14.16
2017-07-15T03:09:13.914Z,14.2
2017-07-15T03:10:14.015Z,14.24
2017-07-15T03:11:13.980Z,14.16
2017-07-15T03:12:14.031Z,14.2
2017-07-15T03:13:14.016Z,14.26
2017-07-15T03:14:14.074Z,14.15
2017-07-15T03:15:14.107Z,14.31
2017-07-15T03:16:14.135Z,14.3
2017-07-15T03:17:14.173Z,14.42
2017-07-15T03:18:14.201Z,14.36
2017-07-15T03:19:14.252Z,14.36
2017-07-15T03:20:14.311Z,14.44
2017-07-15T03:21:14.294Z,14.48
2017-07-15T03:22:14.396Z,14.49
2017-07-15T03:23:14.412Z,14.57
2017-07-15T03:24:14.482Z,14.52
2017-07-15T03:25:14.426Z,14.6
2017-07-15T03:26:14.484Z,14.59
2017-07-15T03:27:14.698Z,14.59
2017-07-15T03:28:14.530Z,14.64
2017-07-15T03:29:14.626Z,14.7
2017-07-15T03:30:14.594Z,14.7
2017-07-15T03:31:14.613Z,14.71
2017-07-15T03:32:14.656Z,14.75
2017-07-15T03:33:14.659Z,14.77
2017-07-15T03:34:14.689Z,14.75
2017-07-15T03:35:14.754Z,14.8
2017-07-15T03:36:14.848Z,14.83
2017-07-15T03:37:14.815Z,14.79
2017-07-15T03:38:14.863Z,14.94
2017-07-15T03:39:14.906Z,14.95
2017-07-15T03:40:14.913Z,14.98
2017-07-15T03:41:14.934Z,15
2017-07-15T03:42:15.305Z,15.02
2017-07-15T03:43:15.028Z,15.12
2017-07-15T03:44:15.047Z,15.04
2017-07-15T03:45:15.072Z,15.07
2017-07-15T03:46:15.115Z,15.13
2017-07-15T03:47:15.295Z,15.18
2017-07-15T03:48:15.177Z,15.25
2017-07-15T03:49:15.216Z,15.2
2017-07-15T03:50:15.222Z,15.26
2017-07-15T03:51:15.295Z,15.23
2017-07-15T03:52:15.428Z,15.31
2017-07-15T03:53:15.337Z,15.37
2017-07-15T03:54:15.430Z,15.37
2017-07-15T03:55:15.419Z,15.4
2017-07-15T03:56:15.443Z,15.45
2017-07-15T03:57:15.477Z,15.49
2017-07-15T03:58:15.578Z,15.55
2017-07-15T03:59:15.547Z,15.52
2017-07-15T04:00:19.344Z,15.63
2017-07-15T04:01:19.348Z,15.73
2017-07-15T04:02:19.813Z,15.73
2017-07-15T04:03:19.839Z,15.73
2017-07-15T04:04:19.475Z,15.77
2017-07-15T04:05:19.468Z,15.91
2017-07-15T04:06:19.535Z,15.86
2017-07-15T04:07:19.520Z,15.99
2017-07-15T04:08:19.556Z,15.93
2017-07-15T04:09:19.623Z,16.07
2017-07-15T04:10:19.674Z,16.17
2017-07-15T04:11:19.662Z,16.21
2017-07-15T04:12:19.725Z,16.25
2017-07-15T04:13:19.726Z,16.39
2017-07-15T04:14:19.756Z,16.4
2017-07-15T04:15:19.866Z,16.52
2017-07-15T04:16:19.849Z,16.54
2017-07-15T04:17:19.900Z,16.55
2017-07-15T04:18:19.890Z,16.65
2017-07-15T04:19:19.971Z,16.62
2017-07-15T04:20:19.961Z,16.69
2017-07-15T04:21:20.016Z,16.57
2017-07-15T04:22:20.039Z,16.57
2017-07-15T04:23:20.077Z,16.57
2017-07-15T04:24:20.101Z,16.52
2017-07-15T04:25:20.124Z,16.57
2017-07-15T04:26:20.186Z,16.67
2017-07-15T04:27:20.217Z,16.85
2017-07-15T04:28:20.268Z,17.03
2017-07-15T04:29:20.280Z,17.4
2017-07-15T04:30:20.345Z,17.84
2017-07-15T04:31:20.359Z,18.27
2017-07-15T04:32:20.365Z,18.42
2017-07-15T04:33:20.416Z,18.63
2017-07-15T04:34:20.476Z,18.76
2017-07-15T04:35:20.467Z,18.76
2017-07-15T04:36:20.500Z,18.72
2017-07-15T04:37:20.534Z,18.54
2017-07-15T04:38:20.587Z,18.39
2017-07-15T04:39:20.580Z,18.29
2017-07-15T04:40:20.661Z,18.19
2017-07-15T04:41:20.671Z,18.08
2017-07-15T04:42:20.775Z,18.01
2017-07-15T04:43:20.947Z,17.98
2017-07-15T04:44:20.754Z,18.01
2017-07-15T04:45:20.841Z,18.03
2017-07-15T04:46:20.870Z,18.08
2017-07-15T04:47:20.867Z,18.14
2017-07-15T04:48:21.073Z,18.32
2017-07-15T04:49:20.988Z,18.44
2017-07-15T04:50:20.983Z,18.38
2017-07-15T04:51:21.017Z,18.42
2017-07-15T04:52:21.059Z,18.42
2017-07-15T04:53:21.218Z,18.36
2017-07-15T04:54:21.182Z,18.39
2017-07-15T04:55:21.195Z,18.45
2017-07-15T04:56:21.229Z,18.54
2017-07-15T04:57:21.241Z,18.47
2017-07-15T04:58:21.288Z,18.54
2017-07-15T04:59:21.349Z,18.63
2017-07-15T05:00:21.382Z,18.71
2017-07-15T05:01:21.400Z,18.78
2017-07-15T05:02:21.430Z,18.75
2017-07-15T05:03:21.496Z,18.81
2017-07-15T05:04:21.489Z,18.87
2017-07-15T05:05:21.522Z,18.9
2017-07-15T05:06:21.547Z,19.02
2017-07-15T05:07:21.630Z,19.02
2017-07-15T05:08:21.674Z,19.02
2017-07-15T05:09:21.685Z,19.13
2017-07-15T05:10:21.706Z,19.15
2017-07-15T05:11:21.768Z,19.28
2017-07-15T05:12:21.770Z,19.35
2017-07-15T05:13:21.804Z,19.38
2017-07-15T05:14:21.838Z,19.35
2017-07-15T05:15:21.894Z,19.52
2017-07-15T05:16:21.930Z,19.57
2017-07-15T05:17:21.972Z,19.61
2017-07-15T05:18:22.010Z,19.74
2017-07-15T05:19:22.040Z,19.98
2017-07-15T05:20:22.101Z,20.29
2017-07-15T05:21:22.107Z,20.41
2017-07-15T05:22:22.087Z,20.56
2017-07-15T05:23:22.153Z,20.46
2017-07-15T05:24:22.190Z,20.4
2017-07-15T05:25:22.211Z,20.37
2017-07-15T05:26:22.306Z,20.4
2017-07-15T05:27:22.290Z,20.44
2017-07-15T05:28:22.352Z,20.57
2017-07-15T05:29:22.397Z,20.68
2017-07-15T05:30:22.407Z,20.79
2017-07-15T05:31:22.498Z,20.85
2017-07-15T05:32:22.488Z,20.88
2017-07-15T05:33:22.546Z,20.93
2017-07-15T05:34:22.609Z,21.08
2017-07-15T05:35:22.600Z,21.22
2017-07-15T05:36:22.646Z,21.31
2017-07-15T05:37:22.671Z,21.41
2017-07-15T05:38:22.740Z,21.45
2017-07-15T05:39:22.760Z,21.56
2017-07-15T05:40:22.779Z,21.89
2017-07-15T05:41:22.863Z,22.14
2017-07-15T05:42:22.903Z,22.27
2017-07-15T05:43:22.912Z,22.27
2017-07-15T05:44:22.927Z,22.31
2017-07-15T05:45:23.010Z,22.51
2017-07-15T05:46:22.994Z,23.14
2017-07-15T05:47:23.040Z,23.81
2017-07-15T05:48:23.118Z,24.34
2017-07-15T05:49:23.141Z,24.69
2017-07-15T05:50:23.212Z,25
2017-07-15T05:51:23.199Z,25.29
2017-07-15T05:52:23.253Z,25.32
2017-07-15T05:53:23.318Z,25.33
2017-07-15T05:54:23.656Z,25.2
2017-07-15T05:55:23.323Z,24.89
2017-07-15T05:56:23.418Z,24.55
2017-07-15T05:57:23.449Z,24.14
2017-07-15T05:58:23.486Z,23.82
2017-07-15T05:59:23.557Z,23.48
2017-07-15T06:00:23.556Z,23.22
2017-07-15T06:01:23.609Z,23.26
2017-07-15T06:02:23.608Z,23.24
2017-07-15T06:03:23.660Z,23.22
2017-07-15T06:04:23.711Z,23.22
2017-07-15T06:05:23.695Z,23.21
2017-07-15T06:06:23.768Z,23.06
2017-07-15T06:07:23.812Z,23.06
2017-07-15T06:08:23.868Z,23.26
2017-07-15T06:09:23.908Z,23.41
2017-07-15T06:10:23.915Z,23.35
2017-07-15T06:11:23.979Z,23.4
2017-07-15T06:12:24.009Z,23.34
2017-07-15T06:13:24.011Z,23.4
2017-07-15T06:14:24.120Z,23.34
2017-07-15T06:15:24.114Z,23.35
2017-07-15T06:16:24.166Z,23.29
2017-07-15T06:17:24.192Z,23.25
2017-07-15T06:18:24.270Z,23.26
2017-07-15T06:19:24.264Z,23.45
2017-07-15T06:20:24.319Z,23.78
2017-07-15T06:21:25.000Z,24.21
2017-07-15T06:22:24.836Z,24.58
2017-07-15T06:23:26.063Z,24.96
2017-07-15T06:24:25.921Z,25.47
2017-07-15T06:25:25.004Z,26.01
2017-07-15T06:26:24.783Z,26.61
2017-07-15T06:27:24.641Z,27.42
2017-07-15T06:28:25.301Z,28.16
2017-07-15T06:29:26.753Z,28.91
2017-07-15T06:30:28.582Z,29.69
2017-07-15T06:31:24.785Z,30.34
2017-07-15T06:32:25.230Z,30.6
2017-07-15T06:33:25.030Z,30.71
2017-07-15T06:34:25.713Z,31.01
2017-07-15T06:35:25.161Z,31.47
2017-07-15T06:36:24.958Z,31.94
2017-07-15T06:37:25.393Z,32.62
2017-07-15T06:38:25.014Z,33.17
2017-07-15T06:39:25.046Z,33.47
2017-07-15T06:40:25.286Z,33.66
2017-07-15T06:41:28.985Z,34.11
2017-07-15T06:42:26.236Z,34.34
2017-07-15T06:43:27.079Z,34.43
2017-07-15T06:44:26.584Z,34.58
2017-07-15T06:45:25.782Z,34.77
2017-07-15T06:46:25.619Z,34.97
2017-07-15T06:47:25.599Z,35.33
2017-07-15T06:48:26.113Z,35.33
2017-07-15T06:49:25.475Z,34.89
2017-07-15T06:50:26.404Z,34.77
2017-07-15T06:51:26.015Z,34.9
2017-07-15T06:52:26.004Z,35.05
2017-07-15T06:53:26.055Z,35.05
2017-07-15T06:54:26.124Z,34.94
2017-07-15T06:55:26.150Z,35.33
2017-07-15T06:56:25.996Z,35.79
2017-07-15T06:57:27.070Z,36.22
2017-07-15T06:58:26.328Z,36.4
2017-07-15T06:59:25.913Z,36.55
2017-07-15T07:00:25.996Z,36.34
2017-07-15T07:01:26.017Z,35.92
2017-07-15T07:02:26.039Z,35.82
2017-07-15T07:03:26.101Z,35.79
2017-07-15T07:04:26.115Z,35.72
2017-07-15T07:05:26.173Z,35.46
2017-07-15T07:06:26.207Z,35.24
2017-07-15T07:07:26.274Z,34.48
2017-07-15T07:08:26.268Z,33.43
2017-07-15T07:09:26.297Z,32.38
2017-07-15T07:10:26.357Z,32.06
2017-07-15T07:11:26.398Z,32.09
2017-07-15T07:12:26.476Z,32.49
2017-07-15T07:13:26.489Z,32.94
2017-07-15T07:14:26.551Z,33.65
2017-07-15T07:15:26.615Z,34.22
2017-07-15T07:16:26.597Z,34.91
2017-07-15T07:17:26.657Z,35.42
2017-07-15T07:18:26.740Z,35.46
2017-07-15T07:19:26.773Z,35.67
2017-07-15T07:20:26.788Z,36.15
2017-07-15T07:21:26.861Z,36.56
2017-07-15T07:22:26.913Z,36.89
2017-07-15T07:23:26.916Z,37.44
2017-07-15T07:24:26.960Z,38.1
2017-07-15T07:25:27.000Z,38.66
2017-07-15T07:26:27.043Z,39.06
2017-07-15T07:27:27.097Z,39.37
2017-07-15T07:28:27.152Z,39.62
2017-07-15T07:29:27.198Z,39.52
2017-07-15T07:30:27.277Z,38.92
2017-07-15T07:31:27.263Z,37.75
2017-07-15T07:32:27.275Z,36.61
2017-07-15T07:33:27.400Z,35.89
2017-07-15T07:34:27.447Z,35.62
2017-07-15T07:35:27.439Z,35.15
2017-07-15T07:36:27.497Z,34.22
2017-07-15T07:37:27.530Z,33.21
2017-07-15T07:38:27.592Z,32.39
2017-07-15T07:39:27.609Z,32.01
2017-07-15T07:40:27.688Z,32.03
2017-07-15T07:41:27.753Z,32.12
2017-07-15T07:42:27.765Z,31.86
2017-07-15T07:43:27.814Z,32
2017-07-15T07:44:27.864Z,32.64
2017-07-15T07:45:27.877Z,33.4
2017-07-15T07:46:28.010Z,33.97
2017-07-15T07:47:27.984Z,34.17
2017-07-15T07:48:27.998Z,34.34
2017-07-15T07:49:28.000Z,34.84
2017-07-15T07:50:28.087Z,35.58
2017-07-15T07:51:28.423Z,36.44
2017-07-15T07:52:28.168Z,37.15
2017-07-15T07:53:28.218Z,37.46
2017-07-15T07:54:28.275Z,36.83
2017-07-15T07:55:28.331Z,36.01
2017-07-15T07:56:28.663Z,35.87
2017-07-15T07:57:28.436Z,36.18
2017-07-15T07:58:28.437Z,36.77
2017-07-15T07:59:28.473Z,37.37
2017-07-15T08:00:28.536Z,38.15
2017-07-15T08:01:28.571Z,38.54
2017-07-15T08:02:28.607Z,38.24
2017-07-15T08:03:28.618Z,37.56
2017-07-15T08:04:28.718Z,37.36
2017-07-15T08:05:28.741Z,36.7
2017-07-15T08:06:28.812Z,36.43
2017-07-15T08:07:28.840Z,36.36
2017-07-15T08:08:28.900Z,35.94
2017-07-15T08:09:28.962Z,34.89
2017-07-15T08:10:29.010Z,33.71
2017-07-15T08:11:29.036Z,33.03
2017-07-15T08:12:29.042Z,32.74
2017-07-15T08:13:29.093Z,32.81
2017-07-15T08:14:29.137Z,32.62
2017-07-15T08:15:29.199Z,32.69
2017-07-15T08:16:29.271Z,33.5
2017-07-15T08:17:29.308Z,34.51
2017-07-15T08:18:29.328Z,35.67
2017-07-15T08:19:29.385Z,36.47
2017-07-15T08:20:29.406Z,37.23
2017-07-15T08:21:29.434Z,38.09
2017-07-15T08:22:29.496Z,38.61
2017-07-15T08:23:29.559Z,39.16
2017-07-15T08:24:29.570Z,39.37
2017-07-15T08:25:29.630Z,39.42
2017-07-15T08:26:29.682Z,39.6
2017-07-15T08:27:29.725Z,39.34
2017-07-15T08:28:29.710Z,38.18
2017-07-15T08:29:29.815Z,36.55
2017-07-15T08:30:29.831Z,34.94
2017-07-15T08:31:29.871Z,34.24
2017-07-15T08:32:30.183Z,34.52
2017-07-15T08:33:29.992Z,35.43
2017-07-15T08:34:30.030Z,36.71
2017-07-15T08:35:30.074Z,37.53
2017-07-15T08:36:30.073Z,38.1
2017-07-15T08:37:30.108Z,37.41
2017-07-15T08:38:30.197Z,37
2017-07-15T08:39:30.199Z,36.02
2017-07-15T08:40:30.301Z,35.2
2017-07-15T08:41:30.331Z,34.94
2017-07-15T08:42:30.354Z,34.26
2017-07-15T08:43:30.424Z,33.29
2017-07-15T08:44:30.492Z,32.39
2017-07-15T08:45:30.495Z,31.68
2017-07-15T08:46:30.525Z,30.94
2017-07-15T08:47:30.601Z,30.6
2017-07-15T08:48:30.642Z,30.28
2017-07-15T08:49:30.663Z,29.89
2017-07-15T08:50:30.729Z,29.61
2017-07-15T08:51:30.804Z,29.39
2017-07-15T08:52:30.828Z,29.1
2017-07-15T08:53:30.826Z,28.86
2017-07-15T08:54:30.926Z,28.58
2017-07-15T08:55:30.942Z,28.39
2017-07-15T08:56:31.015Z,28.61
2017-07-15T08:57:31.031Z,29.39
2017-07-15T08:58:31.104Z,30.62
2017-07-15T08:59:31.138Z,31.65
2017-07-15T09:00:31.142Z,32.35
2017-07-15T09:01:31.184Z,32.35
2017-07-15T09:02:31.233Z,32.17
2017-07-15T09:03:31.234Z,31.98
2017-07-15T09:04:31.343Z,31.72
2017-07-15T09:05:31.435Z,31.37
2017-07-15T09:06:31.415Z,31.19
2017-07-15T09:07:31.477Z,31.06
2017-07-15T09:08:31.452Z,31.25
2017-07-15T09:09:31.531Z,31.25
2017-07-15T09:10:31.543Z,31.07
2017-07-15T09:11:31.591Z,30.84
2017-07-15T09:12:31.596Z,31.07
2017-07-15T09:13:31.700Z,32.01
2017-07-15T09:14:31.737Z,33.28
2017-07-15T09:15:31.756Z,33.29
2017-07-15T09:16:31.843Z,33.48
2017-07-15T09:17:31.866Z,34.4
2017-07-15T09:18:31.913Z,35.11
2017-07-15T09:19:31.919Z,35.79
2017-07-15T09:20:32.015Z,36.93
2017-07-15T09:21:32.037Z,38.06
2017-07-15T09:22:32.041Z,38.18
2017-07-15T09:23:32.111Z,37.45
2017-07-15T09:24:32.143Z,36.84
2017-07-15T09:25:32.153Z,36.34
2017-07-15T09:26:32.250Z,35.9
2017-07-15T09:27:32.322Z,35.64
2017-07-15T09:28:32.339Z,35.82
2017-07-15T09:29:32.335Z,36.71
2017-07-15T09:30:32.383Z,37.68
2017-07-15T09:31:32.444Z,38.66
2017-07-15T09:32:32.511Z,39.33
2017-07-15T09:33:32.543Z,39.79
2017-07-15T09:34:32.628Z,40.52
2017-07-15T09:35:32.645Z,40.81
2017-07-15T09:36:32.685Z,39.91
2017-07-15T09:37:32.733Z,38.33
2017-07-15T09:38:32.810Z,37.09
2017-07-15T09:39:32.810Z,35.6
2017-07-15T09:40:32.808Z,34.49
2017-07-15T09:41:32.924Z,33.62
2017-07-15T09:42:32.936Z,32.86
2017-07-15T09:43:33.003Z,32.17
2017-07-15T09:44:33.043Z,32.47
2017-07-15T09:45:33.100Z,32.99
2017-07-15T09:46:33.154Z,33.87
2017-07-15T09:47:33.153Z,35.18
2017-07-15T09:48:33.246Z,36.52
2017-07-15T09:49:33.245Z,37.57
2017-07-15T09:50:33.279Z,38.46
2017-07-15T09:51:33.463Z,39.16
2017-07-15T09:52:33.372Z,39.91
2017-07-15T09:53:33.434Z,40.65
2017-07-15T09:54:33.457Z,41.22
2017-07-15T09:55:33.508Z,41.57
2017-07-15T09:56:33.754Z,40.93
2017-07-15T09:57:33.647Z,39.96
2017-07-15T09:58:33.673Z,39.9
2017-07-15T09:59:33.739Z,40.22
2017-07-15T10:00:33.723Z,40.63
2017-07-15T10:01:33.813Z,41.01
2017-07-15T10:02:33.869Z,41.22
2017-07-15T10:03:33.878Z,41.54
2017-07-15T10:04:33.959Z,41.65
2017-07-15T10:05:33.965Z,41.16
2017-07-15T10:06:34.032Z,40.54
2017-07-15T10:07:34.087Z,39.64
2017-07-15T10:08:34.172Z,38.8
2017-07-15T10:09:34.205Z,38.05
2017-07-15T10:10:34.234Z,36.88
2017-07-15T10:11:34.232Z,35.71
2017-07-15T10:12:34.325Z,34.89
2017-07-15T10:13:34.365Z,34.12
2017-07-15T10:14:34.416Z,33.65
2017-07-15T10:15:34.438Z,33.89
2017-07-15T10:16:34.454Z,33.59
2017-07-15T10:17:34.548Z,32.99
2017-07-15T10:18:34.568Z,32.31
2017-07-15T10:19:34.591Z,32.1
2017-07-15T10:20:34.638Z,32.38
2017-07-15T10:21:34.677Z,33.17
2017-07-15T10:22:34.761Z,33.13
2017-07-15T10:23:34.838Z,32.47
2017-07-15T10:24:34.839Z,32.25
2017-07-15T10:25:34.876Z,32.68
2017-07-15T10:26:34.954Z,32.61
2017-07-15T10:27:34.950Z,33.43
2017-07-15T10:28:35.029Z,34.61
2017-07-15T10:29:35.055Z,35.69
2017-07-15T10:30:35.089Z,37.09
2017-07-15T10:31:35.165Z,37.57
2017-07-15T10:32:35.225Z,37.44
2017-07-15T10:33:35.273Z,37.62
2017-07-15T10:34:35.277Z,37.96
2017-07-15T10:35:35.307Z,38.1
2017-07-15T10:36:35.363Z,38.68
2017-07-15T10:37:35.450Z,39.33
2017-07-15T10:38:35.442Z,39.99
2017-07-15T10:39:35.461Z,39.75
2017-07-15T10:40:35.572Z,38.8
2017-07-15T10:41:35.573Z,37.45
2017-07-15T10:42:35.651Z,36.37
2017-07-15T10:43:35.682Z,35.55
2017-07-15T10:44:35.702Z,34.9
2017-07-15T10:45:35.779Z,34.36
2017-07-15T10:46:35.789Z,34.11
2017-07-15T10:47:35.959Z,34.12
2017-07-15T10:48:35.877Z,33.89
2017-07-15T10:49:35.915Z,33.71
2017-07-15T10:50:35.967Z,33.24
2017-07-15T10:51:36.022Z,32.5
2017-07-15T10:52:36.258Z,31.81
2017-07-15T10:53:36.109Z,31.28
2017-07-15T10:54:36.131Z,30.62
2017-07-15T10:55:36.167Z,30.03
2017-07-15T10:56:36.217Z,29.55
2017-07-15T10:57:36.338Z,29.06
2017-07-15T10:58:36.286Z,28.83
2017-07-15T10:59:36.368Z,28.36
2017-07-15T11:00:36.373Z,28.01
2017-07-15T11:01:36.441Z,27.66
2017-07-15T11:02:36.520Z,27.49
2017-07-15T11:03:36.536Z,27.45
2017-07-15T11:04:36.532Z,27.69
2017-07-15T11:05:36.561Z,28.24
2017-07-15T11:06:36.666Z,28.6
2017-07-15T11:07:36.659Z,28.54
2017-07-15T11:08:36.715Z,28.41
2017-07-15T11:09:36.769Z,28.46
2017-07-15T11:10:36.840Z,29.1
2017-07-15T11:11:36.879Z,30.57
2017-07-15T11:12:36.916Z,32.13
2017-07-15T11:13:36.959Z,33.29
2017-07-15T11:14:36.970Z,34.22
2017-07-15T11:15:37.017Z,34.64
2017-07-15T11:16:37.031Z,34.22
2017-07-15T11:17:37.068Z,33.34
2017-07-15T11:18:37.158Z,32.59
2017-07-15T11:19:37.184Z,32.03
2017-07-15T11:20:37.198Z,31.81
2017-07-15T11:21:37.261Z,31.67
2017-07-15T11:22:37.284Z,31.58
2017-07-15T11:23:37.333Z,31.65
2017-07-15T11:24:37.378Z,31.5
2017-07-15T11:25:37.448Z,31.15
2017-07-15T11:26:37.482Z,31.07
2017-07-15T11:27:37.469Z,31.07
2017-07-15T11:28:37.536Z,31.06
2017-07-15T11:29:37.580Z,31.08
2017-07-15T11:30:37.645Z,31.34
2017-07-15T11:31:37.631Z,31.98
2017-07-15T11:32:37.666Z,32.86
2017-07-15T11:33:37.775Z,34.14
2017-07-15T11:34:37.779Z,35.24
2017-07-15T11:35:37.832Z,35.89
2017-07-15T11:36:37.864Z,35.67
2017-07-15T11:37:37.883Z,34.9
2017-07-15T11:38:37.945Z,34.02
2017-07-15T11:39:37.976Z,33.29
2017-07-15T11:40:38.004Z,32.91
2017-07-15T11:41:38.066Z,32.49
2017-07-15T11:42:38.072Z,32.05
2017-07-15T11:43:38.148Z,31.41
2017-07-15T11:44:38.157Z,30.82
2017-07-15T11:45:38.264Z,30.26
2017-07-15T11:46:38.241Z,29.85
2017-07-15T11:47:38.276Z,29.54
2017-07-15T11:48:38.296Z,29.33
2017-07-15T11:49:38.385Z,29.1
2017-07-15T11:50:38.377Z,28.92
2017-07-15T11:51:38.434Z,28.63
2017-07-15T11:52:38.474Z,28.39
2017-07-15T11:53:38.558Z,28.17
2017-07-15T11:54:38.601Z,28.08
2017-07-15T11:55:38.620Z,27.93
2017-07-15T11:56:38.638Z,27.83
2017-07-15T11:57:38.683Z,27.84
2017-07-15T11:58:38.715Z,27.72
2017-07-15T11:59:38.779Z,27.66
2017-07-15T12:00:38.829Z,27.65
2017-07-15T12:01:38.884Z,27.72
2017-07-15T12:02:38.886Z,27.45
2017-07-15T12:03:38.955Z,27.45
2017-07-15T12:04:38.983Z,27.38
2017-07-15T12:05:38.989Z,27.36
2017-07-15T12:06:39.085Z,27.38
2017-07-15T12:07:39.054Z,27.3
2017-07-15T12:08:39.113Z,27.45
2017-07-15T12:09:39.186Z,27.36
2017-07-15T12:10:39.245Z,27.18
2017-07-15T12:11:39.240Z,27.05
2017-07-15T12:12:39.275Z,26.84
2017-07-15T12:13:39.373Z,26.64
2017-07-15T12:14:39.374Z,26.49
2017-07-15T12:15:39.422Z,26.34
2017-07-15T12:16:39.438Z,26.23
2017-07-15T12:17:39.466Z,26.22
2017-07-15T12:18:39.561Z,26.15
2017-07-15T12:19:39.571Z,25.97
2017-07-15T12:20:39.565Z,25.89
2017-07-15T12:21:39.674Z,25.79
2017-07-15T12:22:39.642Z,25.74
2017-07-15T12:23:39.678Z,25.75
2017-07-15T12:24:39.779Z,25.67
2017-07-15T12:25:39.772Z,25.6
2017-07-15T12:26:39.796Z,25.64
2017-07-15T12:27:39.876Z,25.54
2017-07-15T12:28:39.897Z,25.52
2017-07-15T12:29:39.944Z,25.52
2017-07-15T12:30:39.966Z,25.39
2017-07-15T12:31:40.011Z,25.23
2017-07-15T12:32:40.082Z,25.19
2017-07-15T12:33:40.120Z,25.11
2017-07-15T12:34:40.136Z,24.86
2017-07-15T12:35:40.172Z,24.78
2017-07-15T12:36:40.230Z,24.55
2017-07-15T12:37:40.215Z,24.46
2017-07-15T12:38:40.293Z,24.32
2017-07-15T12:39:40.361Z,24.08
2017-07-15T12:40:40.382Z,23.85
2017-07-15T12:41:40.394Z,23.78
2017-07-15T12:42:40.480Z,23.67
2017-07-15T12:43:40.500Z,23.7
2017-07-15T12:44:40.493Z,23.62
2017-07-15T12:45:40.570Z,23.66
2017-07-15T12:46:40.596Z,23.56
2017-07-15T12:47:40.687Z,23.45
2017-07-15T12:48:40.687Z,23.42
2017-07-15T12:49:40.753Z,23.41
2017-07-15T12:50:40.765Z,23.42
2017-07-15T12:51:40.794Z,23.4
2017-07-15T12:52:40.781Z,23.48
2017-07-15T12:53:40.871Z,23.45
2017-07-15T12:54:40.880Z,23.41
2017-07-15T12:55:40.897Z,23.42